Royston, Georgia
Current Conditions -  °F | °C
As of 3:15 PM on Saturday 25 Oct 2014 (Local Time) from KTOC Reporting Station
Clear Clear  
Wind Chill: 76°   Ceiling: Unl
Heat Index: 76°   Visibility: 10mi
Dew Point: 40°   Wind: 7mph
Humidity: 27%   Direction: 230°SW
Pressure: 29.99"   Gusts: NA
Location:  34.29°N, 83.11°W
Report Text: KTOC 251915Z AUTO 23006KT 10SM CLR 24/04 A2999 RMK AO2 T02440043
Loading
Personal Weather Stations






























Interactive Weather Map
Tropical Storm Tracking
New forecast layout! Learn more

10-Day Weather Forecast

Advertisements
Track Severe Weather on mobile